createdAt,value
2022-10-22T00:02:23.699Z,8.43
2022-10-22T00:07:26.523Z,8.42
2022-10-22T00:12:29.266Z,8.53
2022-10-22T00:17:32.018Z,8.57
2022-10-22T00:22:34.860Z,8.56
2022-10-22T00:27:37.748Z,8.57
2022-10-22T00:32:43.065Z,8.56
2022-10-22T00:37:46.090Z,8.57
2022-10-22T00:42:49.163Z,8.59
2022-10-22T00:48:00.763Z,8.62
2022-10-22T00:53:06.678Z,8.66
2022-10-22T00:58:09.598Z,8.71
2022-10-22T01:03:12.511Z,8.68
2022-10-22T01:08:29.106Z,8.70
2022-10-22T01:13:40.029Z,8.74
2022-10-22T01:19:09.717Z,8.77
2022-10-22T01:24:24.916Z,8.71
2022-10-22T01:29:37.586Z,8.70
2022-10-22T01:34:42.181Z,8.72
2022-10-22T01:39:46.656Z,8.78
2022-10-22T01:44:50.317Z,8.80
2022-10-22T01:50:08.377Z,8.83
2022-10-22T01:55:30.313Z,8.85
2022-10-22T02:00:33.085Z,8.80
2022-10-22T02:05:40.264Z,8.80
2022-10-22T02:10:45.114Z,8.82
2022-10-22T02:15:47.897Z,8.89
2022-10-22T02:20:51.543Z,8.93
2022-10-22T02:26:00.526Z,8.94
2022-10-22T02:31:15.088Z,8.98
2022-10-22T02:36:17.896Z,9.01
2022-10-22T02:41:20.624Z,9.07
2022-10-22T02:46:23.819Z,9.12
2022-10-22T02:51:26.581Z,9.05
2022-10-22T02:56:29.436Z,9.04
2022-10-22T03:01:32.221Z,9.03
2022-10-22T03:06:35.200Z,8.95
2022-10-22T03:11:39.168Z,8.82
2022-10-22T03:16:41.930Z,8.84
2022-10-22T03:21:49.878Z,8.89
2022-10-22T03:26:53.104Z,8.98
2022-10-22T03:31:55.951Z,9.00
2022-10-22T03:36:59.657Z,9.02
2022-10-22T03:42:02.422Z,9.04
2022-10-22T03:47:05.354Z,9.12
2022-10-22T03:52:10.715Z,9.12
2022-10-22T03:57:13.614Z,9.09
2022-10-22T04:02:16.393Z,9.10
2022-10-22T04:07:19.164Z,9.17
2022-10-22T04:12:21.881Z,9.21
2022-10-22T04:17:24.909Z,9.19
2022-10-22T04:22:27.646Z,9.22
2022-10-22T04:27:32.084Z,9.24
2022-10-22T04:32:34.830Z,9.24
2022-10-22T04:37:38.092Z,9.30
2022-10-22T04:42:42.323Z,9.32
2022-10-22T04:47:45.196Z,9.32
2022-10-22T04:52:48.024Z,9.38
2022-10-22T04:57:50.800Z,9.44
2022-10-22T05:02:53.538Z,9.49
2022-10-22T05:07:56.626Z,9.53
2022-10-22T05:12:59.365Z,9.53
2022-10-22T05:18:02.197Z,9.53
2022-10-22T05:23:05.453Z,9.49
2022-10-22T05:28:10.569Z,9.37
2022-10-22T05:33:13.310Z,9.39
2022-10-22T05:38:16.886Z,9.46
2022-10-22T05:43:19.643Z,9.52
2022-10-22T05:48:22.691Z,9.60
2022-10-22T05:53:25.506Z,9.67
2022-10-22T05:58:28.318Z,9.79
2022-10-22T06:03:31.979Z,9.86
2022-10-22T06:08:34.778Z,10.03
2022-10-22T06:13:38.596Z,10.12
2022-10-22T06:18:41.574Z,10.14
2022-10-22T06:23:44.392Z,10.14
2022-10-22T06:28:47.590Z,10.14
2022-10-22T06:33:51.837Z,10.18
2022-10-22T06:38:55.444Z,10.18
2022-10-22T06:43:58.453Z,10.24
2022-10-22T06:49:03.248Z,10.18
2022-10-22T06:54:06.317Z,10.23
2022-10-22T06:59:09.051Z,10.33
2022-10-22T07:04:11.890Z,10.41
2022-10-22T07:09:14.782Z,10.45
2022-10-22T07:14:17.746Z,10.47
2022-10-22T07:19:20.541Z,10.44
2022-10-22T07:24:23.705Z,10.44
2022-10-22T07:29:26.591Z,10.44
2022-10-22T07:34:29.497Z,10.45
2022-10-22T07:39:33.733Z,10.51
2022-10-22T07:44:36.586Z,10.54
2022-10-22T07:49:39.402Z,10.58
2022-10-22T07:54:42.145Z,10.59
2022-10-22T07:59:44.902Z,10.67
2022-10-22T08:04:47.685Z,10.71
2022-10-22T08:09:50.491Z,10.74
2022-10-22T08:14:53.457Z,10.82
2022-10-22T08:19:56.210Z,10.88
2022-10-22T08:25:00.501Z,10.94
2022-10-22T08:30:05.253Z,11.02
2022-10-22T08:35:08.172Z,11.02
2022-10-22T08:40:21.131Z,11.07
2022-10-22T08:46:08.622Z,11.13
2022-10-22T08:51:18.612Z,11.25
2022-10-22T08:56:22.605Z,11.34
2022-10-22T09:01:47.069Z,11.37
2022-10-22T09:06:53.638Z,11.41
2022-10-22T09:12:00.198Z,11.44
2022-10-22T09:17:22.022Z,11.47
2022-10-22T09:23:05.493Z,11.51
2022-10-22T09:28:09.892Z,11.53
2022-10-22T09:33:19.177Z,11.64
2022-10-22T09:38:30.376Z,11.79
2022-10-22T09:43:33.438Z,11.94
2022-10-22T09:48:41.069Z,12.08
2022-10-22T09:53:46.626Z,12.30
2022-10-22T09:58:51.293Z,12.35
2022-10-22T10:03:54.142Z,12.37
2022-10-22T10:08:57.336Z,12.39
2022-10-22T10:14:34.666Z,12.42
2022-10-22T10:20:27.931Z,12.41
2022-10-22T10:26:18.337Z,12.31
2022-10-22T10:32:24.373Z,12.33
2022-10-22T10:37:53.778Z,12.28
2022-10-22T10:43:32.459Z,12.28
2022-10-22T10:48:50.263Z,12.29
2022-10-22T10:54:20.229Z,12.28
2022-10-22T10:59:50.366Z,12.22
2022-10-22T11:05:24.009Z,12.20
2022-10-22T11:10:44.301Z,12.22
2022-10-22T11:16:30.337Z,12.14
2022-10-22T11:22:05.064Z,12.08
2022-10-22T11:27:40.055Z,12.10
2022-10-22T11:32:51.898Z,12.20
2022-10-22T11:37:55.938Z,12.29
2022-10-22T11:43:09.276Z,12.36
2022-10-22T11:48:17.339Z,12.39
2022-10-22T11:53:40.649Z,12.43
2022-10-22T11:58:50.795Z,12.39
2022-10-22T12:03:59.702Z,12.43
2022-10-22T12:09:04.899Z,12.44
2022-10-22T12:14:53.770Z,12.49
2022-10-22T12:20:12.016Z,12.48
2022-10-22T12:25:22.198Z,12.53
2022-10-22T12:30:30.580Z,12.60
2022-10-22T12:35:44.017Z,12.62
2022-10-22T12:40:48.767Z,12.60
2022-10-22T12:45:53.578Z,12.65
2022-10-22T12:50:59.388Z,12.68
2022-10-22T12:56:08.272Z,12.71
2022-10-22T13:01:13.561Z,12.69
2022-10-22T13:06:19.980Z,12.69
2022-10-22T13:11:24.093Z,12.71
2022-10-22T13:16:28.046Z,12.70
2022-10-22T13:21:38.126Z,12.72
2022-10-22T13:26:40.915Z,12.77
2022-10-22T13:31:48.926Z,12.77
2022-10-22T13:36:51.736Z,12.73
2022-10-22T13:41:54.795Z,12.74
2022-10-22T13:46:57.553Z,12.77
2022-10-22T13:52:01.175Z,12.72
2022-10-22T13:57:09.283Z,12.70
2022-10-22T14:02:12.273Z,12.64
2022-10-22T14:07:16.549Z,12.67
2022-10-22T14:12:19.315Z,12.70
2022-10-22T14:17:22.037Z,12.70
2022-10-22T14:22:24.850Z,12.66
2022-10-22T14:27:27.576Z,12.61
2022-10-22T14:32:30.623Z,12.60
2022-10-22T14:37:33.653Z,12.60
2022-10-22T14:42:41.732Z,12.58
2022-10-22T14:47:44.902Z,12.56
2022-10-22T14:52:48.549Z,12.56
2022-10-22T14:57:51.388Z,12.55
2022-10-22T15:02:55.927Z,12.51
2022-10-22T15:07:59.513Z,12.57
2022-10-22T15:13:02.283Z,12.57
2022-10-22T15:18:05.326Z,12.48
2022-10-22T15:23:08.128Z,12.42
2022-10-22T15:28:10.917Z,12.39
2022-10-22T15:33:14.889Z,12.40
2022-10-22T15:38:18.003Z,12.40
2022-10-22T15:43:20.792Z,12.39
2022-10-22T15:48:23.663Z,12.40
2022-10-22T15:53:26.404Z,12.41
2022-10-22T15:58:29.359Z,12.40
2022-10-22T16:08:39.939Z,12.42
2022-10-22T16:13:42.685Z,12.44
2022-10-22T16:18:45.469Z,12.40
2022-10-22T16:23:48.311Z,12.36
2022-10-22T16:28:52.326Z,12.34
2022-10-22T16:33:55.497Z,12.32
2022-10-22T16:38:58.566Z,12.29
2022-10-22T16:44:03.636Z,12.25
2022-10-22T16:49:06.900Z,12.24
2022-10-22T16:54:12.471Z,12.22
2022-10-22T16:59:15.509Z,12.20
2022-10-22T17:04:18.294Z,12.18
2022-10-22T17:09:21.555Z,12.18
2022-10-22T17:14:24.380Z,12.20
2022-10-22T17:19:27.457Z,12.22
2022-10-22T17:24:30.208Z,12.25
2022-10-22T17:29:33.102Z,12.29
2022-10-22T17:34:35.861Z,12.32
2022-10-22T17:39:38.799Z,12.30
2022-10-22T17:44:42.283Z,12.25
2022-10-22T17:49:45.024Z,12.28
2022-10-22T17:54:48.702Z,12.29
2022-10-22T17:59:51.420Z,12.27
2022-10-22T18:04:54.282Z,12.28
2022-10-22T18:09:57.428Z,12.28
2022-10-22T18:15:00.197Z,12.32
2022-10-22T18:20:03.205Z,12.30
2022-10-22T18:25:06.635Z,12.27
2022-10-22T18:30:10.191Z,12.29
2022-10-22T18:35:15.517Z,12.27
2022-10-22T18:40:18.266Z,12.28
2022-10-22T18:45:20.977Z,12.27
2022-10-22T18:50:23.858Z,12.24
2022-10-22T18:55:26.863Z,12.14
2022-10-22T19:00:30.514Z,12.09
2022-10-22T19:05:33.284Z,12.08
2022-10-22T19:10:36.048Z,12.13
2022-10-22T19:15:39.165Z,12.14
2022-10-22T19:20:41.950Z,12.12
2022-10-22T19:25:46.476Z,12.11
2022-10-22T19:30:49.442Z,12.08
2022-10-22T19:35:52.216Z,12.08
2022-10-22T19:40:55.017Z,12.09
2022-10-22T19:45:57.772Z,12.10
2022-10-22T19:51:03.120Z,12.13
2022-10-22T19:56:07.666Z,12.11
2022-10-22T20:01:13.280Z,12.10
2022-10-22T20:06:17.227Z,12.12
2022-10-22T20:11:23.222Z,12.11
2022-10-22T20:16:30.697Z,12.10
2022-10-22T20:21:34.984Z,12.09
2022-10-22T20:26:37.860Z,12.09
2022-10-22T20:31:40.758Z,12.09
2022-10-22T20:36:43.499Z,12.10
2022-10-22T20:41:46.213Z,12.13
2022-10-22T20:46:49.024Z,12.13
2022-10-22T20:51:51.802Z,12.16
2022-10-22T20:56:54.551Z,12.15
2022-10-22T21:01:57.300Z,12.15
2022-10-22T21:07:00.032Z,12.16
2022-10-22T21:12:03.729Z,12.15
2022-10-22T21:17:08.189Z,12.19
2022-10-22T21:22:10.962Z,12.19
2022-10-22T21:27:13.692Z,12.24
2022-10-22T21:32:16.428Z,12.24
2022-10-22T21:37:19.426Z,12.26
2022-10-22T21:42:22.178Z,12.22
2022-10-22T21:47:25.006Z,12.21
2022-10-22T21:52:27.907Z,12.24
2022-10-22T21:57:30.710Z,12.21
2022-10-22T22:02:33.483Z,12.18
2022-10-22T22:07:36.277Z,12.18
2022-10-22T22:12:39.204Z,12.20
2022-10-22T22:17:42.146Z,12.21
2022-10-22T22:22:44.939Z,12.24
2022-10-22T22:27:47.698Z,12.27
2022-10-22T22:32:50.463Z,12.29
2022-10-22T22:37:53.190Z,12.32
2022-10-22T22:42:56.007Z,12.34
2022-10-22T22:47:58.705Z,12.34
2022-10-22T22:53:01.520Z,12.34
2022-10-22T22:58:04.309Z,12.37
2022-10-22T23:03:07.061Z,12.39
2022-10-22T23:08:09.897Z,12.37
2022-10-22T23:13:12.678Z,12.38
2022-10-22T23:18:15.435Z,12.39
2022-10-22T23:23:19.998Z,12.36
2022-10-22T23:28:24.179Z,12.33
2022-10-22T23:33:26.940Z,12.33
2022-10-22T23:38:29.681Z,12.34
2022-10-22T23:43:36.066Z,12.34
2022-10-22T23:48:39.487Z,12.34
2022-10-22T23:53:43.029Z,12.32
2022-10-22T23:58:48.276Z,12.30
